createdAt,value
2018-08-09T00:00:49.100Z,21.50
2018-08-09T00:03:18.309Z,21.50
2018-08-09T00:05:47.593Z,21.40
2018-08-09T00:08:16.761Z,21.40
2018-08-09T00:10:45.996Z,21.40
2018-08-09T00:13:15.134Z,21.40
2018-08-09T00:15:44.313Z,21.40
2018-08-09T00:18:13.484Z,21.40
2018-08-09T00:20:42.652Z,21.30
2018-08-09T00:23:11.880Z,21.20
2018-08-09T00:25:41.134Z,21.20
2018-08-09T00:28:10.350Z,21.20
2018-08-09T00:30:39.606Z,21.20
2018-08-09T00:33:08.797Z,21.20
2018-08-09T00:35:38.015Z,21.20
2018-08-09T00:38:07.182Z,21.20
2018-08-09T00:40:36.350Z,21.30
2018-08-09T00:43:05.588Z,21.30
2018-08-09T00:45:34.762Z,21.30
2018-08-09T00:48:04.000Z,21.30
2018-08-09T00:50:33.263Z,21.30
2018-08-09T00:53:02.444Z,21.30
2018-08-09T00:55:31.606Z,21.40
2018-08-09T00:58:00.846Z,21.30
2018-08-09T01:00:30.001Z,21.30
2018-08-09T01:02:59.219Z,21.30
2018-08-09T01:05:28.395Z,21.30
2018-08-09T01:07:57.569Z,21.30
2018-08-09T01:10:26.754Z,21.30
2018-08-09T01:12:55.903Z,21.20
2018-08-09T01:15:25.081Z,21.20
2018-08-09T01:17:54.349Z,21.10
2018-08-09T01:20:23.546Z,21.10
2018-08-09T01:22:52.732Z,21.10
2018-08-09T01:25:22.046Z,21.10
2018-08-09T01:27:51.245Z,21.10
2018-08-09T01:30:20.444Z,21.20
2018-08-09T01:32:49.700Z,21.20
2018-08-09T01:35:18.839Z,21.20
2018-08-09T01:37:48.023Z,21.20
2018-08-09T01:40:17.198Z,21.10
2018-08-09T01:43:03.343Z,21.10
2018-08-09T01:45:32.550Z,21.10
2018-08-09T01:48:01.820Z,21.20
2018-08-09T01:50:30.991Z,21.20
2018-08-09T01:53:00.174Z,21.20
2018-08-09T01:55:29.358Z,21.20
2018-08-09T01:57:58.602Z,21.20
2018-08-09T02:00:27.793Z,21.20
2018-08-09T02:02:56.970Z,21.20
2018-08-09T02:05:26.161Z,21.10
2018-08-09T02:07:55.372Z,21.10
2018-08-09T02:10:24.562Z,21.10
2018-08-09T02:12:53.757Z,21.10
2018-08-09T02:15:22.955Z,21.10
2018-08-09T02:17:52.134Z,21.10
2018-08-09T02:20:21.326Z,21.20
2018-08-09T02:22:50.503Z,21.20
2018-08-09T02:25:19.702Z,21.20
2018-08-09T02:27:48.904Z,21.10
2018-08-09T02:30:18.070Z,21.10
2018-08-09T02:32:47.268Z,21.10
2018-08-09T02:35:16.446Z,21.10
2018-08-09T02:37:45.609Z,21.10
2018-08-09T02:40:14.836Z,21.00
2018-08-09T02:42:44.105Z,20.90
2018-08-09T02:45:13.315Z,20.80
2018-08-09T02:47:42.631Z,20.80
2018-08-09T02:50:11.850Z,20.70
2018-08-09T02:52:41.030Z,20.70
2018-08-09T02:55:10.307Z,20.60
2018-08-09T02:57:39.514Z,20.60
2018-08-09T03:00:08.726Z,20.50
2018-08-09T03:02:38.003Z,20.40
2018-08-09T03:05:07.178Z,20.40
2018-08-09T03:07:36.445Z,20.30
2018-08-09T03:10:06.129Z,20.30
2018-08-09T03:12:35.358Z,20.30
2018-08-09T03:15:04.787Z,20.30
2018-08-09T03:17:33.979Z,20.20
2018-08-09T03:20:03.174Z,20.20
2018-08-09T03:22:32.378Z,20.10
2018-08-09T03:25:01.542Z,20.00
2018-08-09T03:27:30.718Z,20.00
2018-08-09T03:30:00.093Z,19.90
2018-08-09T03:32:29.253Z,19.90
2018-08-09T03:34:58.510Z,19.90
2018-08-09T03:37:27.735Z,19.90
2018-08-09T03:39:56.946Z,19.90
2018-08-09T03:42:26.139Z,19.90
2018-08-09T03:44:55.310Z,19.90
2018-08-09T03:47:24.519Z,19.90
2018-08-09T03:49:53.777Z,19.90
2018-08-09T03:52:23.004Z,19.90
2018-08-09T03:54:52.232Z,19.90
2018-08-09T03:57:21.428Z,19.90
2018-08-09T03:59:50.640Z,19.90
2018-08-09T04:02:19.898Z,19.90
2018-08-09T04:04:49.074Z,19.80
2018-08-09T04:07:18.409Z,19.80
2018-08-09T04:09:47.629Z,19.70
2018-08-09T04:12:17.107Z,19.70
2018-08-09T04:14:46.283Z,19.70
2018-08-09T04:17:19.117Z,19.70
2018-08-09T04:19:49.122Z,19.70
2018-08-09T04:22:18.776Z,19.70
2018-08-09T04:24:48.378Z,19.70
2018-08-09T04:27:17.805Z,19.80
2018-08-09T04:29:47.046Z,19.80
2018-08-09T04:32:16.357Z,19.90
2018-08-09T04:34:45.560Z,19.90
2018-08-09T04:37:14.731Z,19.90
2018-08-09T04:39:43.897Z,20.00
2018-08-09T04:42:15.998Z,20.00
2018-08-09T04:44:45.171Z,20.10
2018-08-09T04:47:14.362Z,20.20
2018-08-09T04:49:43.539Z,20.30
2018-08-09T04:52:12.751Z,20.30
2018-08-09T04:54:41.952Z,20.40
2018-08-09T04:57:11.122Z,20.40
2018-08-09T04:59:40.330Z,20.50
2018-08-09T05:02:09.499Z,20.60
2018-08-09T05:04:39.767Z,20.60
2018-08-09T05:07:08.967Z,20.70
2018-08-09T05:09:38.214Z,20.80
2018-08-09T05:12:07.426Z,20.70
2018-08-09T05:14:36.616Z,20.80
2018-08-09T05:17:05.812Z,20.80
2018-08-09T05:19:35.065Z,20.80
2018-08-09T05:22:04.246Z,20.80
2018-08-09T05:24:33.502Z,20.80
2018-08-09T05:27:02.686Z,20.80
2018-08-09T05:29:31.967Z,20.90
2018-08-09T05:32:01.139Z,20.90
2018-08-09T05:34:30.399Z,21.00
2018-08-09T05:36:59.642Z,21.00
2018-08-09T05:39:28.911Z,21.20
2018-08-09T05:41:58.103Z,21.30
2018-08-09T05:44:27.458Z,21.40
2018-08-09T05:46:56.660Z,21.50
2018-08-09T05:49:25.834Z,21.60
2018-08-09T05:51:55.054Z,21.70
2018-08-09T05:54:24.391Z,21.90
2018-08-09T05:56:53.563Z,22.10
2018-08-09T05:59:22.796Z,22.20
2018-08-09T06:01:52.000Z,22.40
2018-08-09T06:04:21.230Z,22.50
2018-08-09T06:06:50.455Z,22.70
2018-08-09T06:09:19.697Z,22.90
2018-08-09T06:11:48.951Z,22.90
2018-08-09T06:14:18.202Z,22.90
2018-08-09T06:16:47.477Z,22.90
2018-08-09T06:19:16.748Z,23.00
2018-08-09T06:21:45.940Z,23.40
2018-08-09T06:24:15.199Z,24.20
2018-08-09T06:26:44.338Z,25.40
2018-08-09T06:29:13.542Z,26.60
2018-08-09T06:31:42.743Z,27.50
2018-08-09T06:34:11.966Z,27.60
2018-08-09T06:36:41.158Z,27.30
2018-08-09T06:39:10.432Z,26.90
2018-08-09T06:41:40.130Z,26.40
2018-08-09T06:44:09.577Z,26.00
2018-08-09T06:46:38.825Z,25.70
2018-08-09T06:49:08.527Z,25.60
2018-08-09T06:51:44.287Z,25.40
2018-08-09T06:54:13.487Z,25.20
2018-08-09T06:56:42.698Z,25.30
2018-08-09T06:59:11.922Z,25.30
2018-08-09T07:01:41.089Z,25.30
2018-08-09T07:04:10.332Z,25.30
2018-08-09T07:06:39.542Z,25.30
2018-08-09T07:09:10.306Z,25.50
2018-08-09T07:11:39.525Z,25.60
2018-08-09T07:14:08.698Z,25.70
2018-08-09T07:16:37.907Z,25.90
2018-08-09T07:19:07.213Z,25.90
2018-08-09T07:21:36.465Z,26.00
2018-08-09T07:24:05.662Z,26.00
2018-08-09T07:26:34.962Z,26.20
2018-08-09T07:29:04.162Z,26.40
2018-08-09T07:31:33.566Z,26.60
2018-08-09T07:34:02.830Z,26.60
2018-08-09T07:36:32.217Z,26.80
2018-08-09T07:39:01.396Z,26.90
2018-08-09T07:41:30.626Z,27.00
2018-08-09T07:43:59.798Z,27.10
2018-08-09T07:46:29.003Z,27.20
2018-08-09T07:48:58.332Z,27.20
2018-08-09T07:51:27.558Z,27.30
2018-08-09T07:53:56.739Z,27.50
2018-08-09T07:56:25.978Z,27.60
2018-08-09T07:58:55.157Z,27.60
2018-08-09T08:01:24.425Z,27.70
2018-08-09T08:03:53.673Z,27.80
2018-08-09T08:06:22.928Z,27.80
2018-08-09T08:08:52.083Z,28.00
2018-08-09T08:11:21.413Z,28.10
2018-08-09T08:13:50.634Z,28.30
2018-08-09T08:16:19.843Z,28.40
2018-08-09T08:18:49.037Z,28.50
2018-08-09T08:21:18.263Z,28.60
2018-08-09T08:23:47.447Z,28.80
2018-08-09T08:26:16.683Z,28.80
2018-08-09T08:28:46.022Z,28.80
2018-08-09T08:31:15.326Z,28.90
2018-08-09T08:33:44.533Z,29.00
2018-08-09T08:36:13.771Z,29.00
2018-08-09T08:38:42.983Z,29.20
2018-08-09T08:41:12.191Z,29.30
2018-08-09T08:43:41.379Z,29.40
2018-08-09T08:46:10.551Z,29.40
2018-08-09T08:48:39.897Z,29.50
2018-08-09T08:51:09.074Z,29.60
2018-08-09T08:53:38.303Z,29.70
2018-08-09T08:56:07.544Z,29.70
2018-08-09T08:58:36.797Z,29.70
2018-08-09T09:01:06.113Z,29.70
2018-08-09T09:03:35.365Z,29.60
2018-08-09T09:06:04.576Z,29.50
2018-08-09T09:08:33.800Z,29.40
2018-08-09T09:11:02.971Z,29.60
2018-08-09T09:13:32.182Z,29.60
2018-08-09T09:16:01.423Z,29.70
2018-08-09T09:18:30.611Z,29.80
2018-08-09T09:20:59.897Z,29.90
2018-08-09T09:23:29.112Z,30.10
2018-08-09T09:25:58.291Z,30.10
2018-08-09T09:28:27.502Z,30.20
2018-08-09T09:30:56.731Z,30.30
2018-08-09T09:33:25.931Z,30.30
2018-08-09T09:35:55.210Z,30.40
2018-08-09T09:38:24.383Z,30.50
2018-08-09T09:40:53.537Z,30.50
2018-08-09T09:43:22.763Z,30.50
2018-08-09T09:45:51.985Z,30.50
2018-08-09T09:48:21.252Z,30.60
2018-08-09T09:50:50.445Z,30.70
2018-08-09T09:53:19.726Z,30.80
2018-08-09T09:55:48.918Z,30.90
2018-08-09T09:58:18.134Z,31.10
2018-08-09T10:00:52.783Z,31.00
2018-08-09T10:03:22.021Z,31.10
2018-08-09T10:05:51.196Z,31.20
2018-08-09T10:08:20.411Z,31.20
2018-08-09T10:10:49.701Z,31.20
2018-08-09T10:13:18.895Z,31.30
2018-08-09T10:15:48.283Z,31.40
2018-08-09T10:18:17.473Z,31.50
2018-08-09T10:20:46.768Z,31.50
2018-08-09T10:23:15.979Z,31.40
2018-08-09T10:25:45.222Z,31.40
2018-08-09T10:28:14.381Z,31.30
2018-08-09T10:30:43.633Z,31.40
2018-08-09T10:33:12.862Z,31.40
2018-08-09T10:35:42.105Z,31.60
2018-08-09T10:38:11.344Z,31.80
2018-08-09T10:40:47.997Z,31.90
2018-08-09T10:43:17.185Z,32.00
2018-08-09T10:45:53.053Z,32.10
2018-08-09T10:48:22.235Z,32.00
2018-08-09T10:50:51.490Z,32.20
2018-08-09T10:53:20.701Z,32.10
2018-08-09T10:55:50.101Z,32.00
2018-08-09T10:58:19.317Z,32.00
2018-08-09T11:00:48.565Z,32.10
2018-08-09T11:03:17.830Z,32.30
2018-08-09T11:05:47.071Z,32.20
2018-08-09T11:08:16.247Z,32.20
2018-08-09T11:10:45.469Z,32.30
2018-08-09T11:13:14.690Z,32.40
2018-08-09T11:15:43.974Z,32.50
2018-08-09T11:18:13.286Z,32.50
2018-08-09T11:20:43.234Z,32.50
2018-08-09T11:23:12.454Z,32.50
2018-08-09T11:25:41.667Z,32.70
2018-08-09T11:28:10.950Z,32.80
2018-08-09T11:30:40.206Z,32.90
2018-08-09T11:33:09.445Z,32.90
2018-08-09T11:35:38.677Z,32.80
2018-08-09T11:38:07.898Z,33.00
2018-08-09T11:40:37.142Z,32.90
2018-08-09T11:43:13.010Z,32.70
2018-08-09T11:48:11.264Z,32.90
2018-08-09T11:50:40.450Z,33.00
2018-08-09T11:53:09.645Z,33.00
2018-08-09T11:55:38.843Z,33.20
2018-08-09T11:58:08.066Z,33.30
2018-08-09T12:00:37.283Z,33.40
2018-08-09T12:03:06.509Z,33.60
2018-08-09T12:05:35.748Z,33.50
2018-08-09T12:08:04.964Z,33.30
2018-08-09T12:10:34.209Z,33.40
2018-08-09T12:13:03.449Z,33.50
2018-08-09T12:15:32.711Z,33.50
2018-08-09T12:18:01.902Z,33.50
2018-08-09T12:20:31.130Z,33.70
2018-08-09T12:23:00.323Z,34.00
2018-08-09T12:25:29.522Z,34.20
2018-08-09T12:27:58.987Z,34.00
2018-08-09T12:30:28.276Z,34.10
2018-08-09T12:32:57.552Z,34.30
2018-08-09T12:35:26.846Z,34.40
2018-08-09T12:37:56.110Z,34.20
2018-08-09T12:40:25.384Z,34.10
2018-08-09T12:42:54.685Z,34.40
2018-08-09T12:45:23.964Z,34.70
2018-08-09T12:47:53.118Z,34.80
2018-08-09T12:50:22.293Z,34.70
2018-08-09T12:52:51.518Z,34.70
2018-08-09T12:55:20.697Z,34.90
2018-08-09T12:57:49.942Z,34.90
2018-08-09T13:00:19.181Z,35.10
2018-08-09T13:02:48.478Z,35.00
2018-08-09T13:05:17.697Z,35.00
2018-08-09T13:07:46.960Z,34.90
2018-08-09T13:10:16.162Z,34.70
2018-08-09T13:12:45.434Z,34.50
2018-08-09T13:15:14.721Z,34.20
2018-08-09T13:17:45.265Z,34.00
2018-08-09T13:20:17.895Z,33.70
2018-08-09T13:22:47.845Z,33.50
2018-08-09T13:25:17.158Z,33.20
2018-08-09T13:27:46.510Z,32.20
2018-08-09T13:30:15.780Z,30.70
2018-08-09T13:32:45.513Z,29.40
2018-08-09T13:35:14.735Z,28.20
2018-08-09T13:37:43.982Z,27.40
2018-08-09T13:40:13.263Z,26.80
2018-08-09T13:42:42.458Z,26.20
2018-08-09T13:45:14.663Z,25.80
2018-08-09T13:47:43.886Z,25.50
2018-08-09T13:50:13.826Z,25.00
2018-08-09T13:52:43.102Z,24.40
2018-08-09T13:55:14.189Z,23.50
2018-08-09T13:57:43.471Z,22.90
2018-08-09T14:00:13.882Z,22.30
2018-08-09T14:02:44.739Z,22.00
2018-08-09T14:05:13.930Z,21.60
2018-08-09T14:07:44.217Z,21.40
2018-08-09T14:10:13.976Z,21.50
2018-08-09T14:12:43.422Z,21.50
2018-08-09T14:15:14.682Z,21.50
2018-08-09T14:17:43.928Z,21.50
2018-08-09T14:20:16.146Z,21.50
2018-08-09T14:22:45.442Z,21.50
2018-08-09T14:25:14.790Z,21.50
2018-08-09T14:27:43.990Z,21.70
2018-08-09T14:30:15.859Z,21.80
2018-08-09T14:32:45.603Z,22.00
2018-08-09T14:35:16.260Z,22.30
2018-08-09T14:37:46.502Z,22.50
2018-08-09T14:40:16.377Z,22.80
2018-08-09T14:42:45.643Z,23.10
2018-08-09T14:45:16.435Z,23.40
2018-08-09T14:47:45.711Z,23.50
2018-08-09T14:50:14.820Z,23.60
2018-08-09T14:52:44.092Z,23.60
2018-08-09T14:55:13.950Z,23.60
2018-08-09T14:57:43.345Z,23.60
2018-08-09T15:00:18.323Z,23.70
2018-08-09T15:02:47.980Z,23.80
2018-08-09T15:05:17.771Z,23.90
2018-08-09T15:07:46.981Z,23.90
2018-08-09T15:10:17.519Z,23.90
2018-08-09T15:12:46.794Z,23.80
2018-08-09T15:15:16.037Z,23.90
2018-08-09T15:17:45.361Z,23.80
2018-08-09T15:20:14.887Z,23.80
2018-08-09T15:22:44.274Z,23.80
2018-08-09T15:25:13.745Z,23.70
2018-08-09T15:27:42.947Z,23.70
2018-08-09T15:30:16.610Z,23.60
2018-08-09T15:32:46.020Z,23.60
2018-08-09T15:35:15.372Z,23.60
2018-08-09T15:37:44.947Z,23.60
2018-08-09T15:40:15.047Z,23.60
2018-08-09T15:42:44.292Z,23.50
2018-08-09T15:45:15.290Z,23.60
2018-08-09T15:47:44.733Z,23.60
2018-08-09T15:50:17.585Z,23.60
2018-08-09T15:52:46.875Z,23.70
2018-08-09T15:55:17.617Z,23.90
2018-08-09T15:57:46.937Z,24.00
2018-08-09T16:00:19.808Z,24.50
2018-08-09T16:02:49.078Z,25.00
2018-08-09T16:05:18.323Z,25.40
2018-08-09T16:07:47.664Z,25.30
2018-08-09T16:10:17.995Z,25.40
2018-08-09T16:12:47.845Z,25.40
2018-08-09T16:15:18.668Z,25.20
2018-08-09T16:17:48.610Z,25.10
2018-08-09T16:20:18.019Z,24.90
2018-08-09T16:22:47.501Z,24.70
2018-08-09T16:25:18.690Z,24.60
2018-08-09T16:27:48.963Z,24.60
2018-08-09T16:30:21.958Z,24.40
2018-08-09T16:32:51.220Z,24.40
2018-08-09T16:35:20.667Z,24.40
2018-08-09T16:37:50.009Z,24.40
2018-08-09T16:40:23.587Z,24.40
2018-08-09T16:42:52.812Z,24.40
2018-08-09T16:45:22.834Z,24.40
2018-08-09T16:47:53.443Z,24.40
2018-08-09T16:50:24.130Z,24.30
2018-08-09T16:52:53.489Z,24.30
2018-08-09T16:55:24.100Z,24.30
2018-08-09T16:57:53.368Z,24.30
2018-08-09T17:00:24.268Z,24.30
2018-08-09T17:05:26.181Z,24.30
2018-08-09T17:07:55.492Z,24.30
2018-08-09T17:10:25.547Z,24.30
2018-08-09T17:12:54.787Z,24.20
2018-08-09T17:15:26.922Z,24.10
2018-08-09T17:17:56.933Z,24.00
2018-08-09T17:20:29.624Z,23.90
2018-08-09T17:22:59.636Z,23.80
2018-08-09T17:25:28.884Z,23.70
2018-08-09T17:27:58.094Z,23.60
2018-08-09T17:30:28.278Z,23.60
2018-08-09T17:32:58.513Z,23.50
2018-08-09T17:35:27.780Z,23.40
2018-08-09T17:37:57.139Z,23.40
2018-08-09T17:40:31.416Z,23.30
2018-08-09T17:43:01.516Z,23.10
2018-08-09T17:45:32.826Z,23.00
2018-08-09T17:48:02.605Z,22.90
2018-08-09T17:50:31.818Z,22.80
2018-08-09T17:53:02.697Z,22.60
2018-08-09T17:55:32.678Z,22.40
2018-08-09T17:58:01.907Z,22.20
2018-08-09T18:00:32.519Z,22.10
2018-08-09T18:03:01.846Z,22.00
2018-08-09T18:05:31.099Z,21.80
2018-08-09T18:08:00.483Z,21.80
2018-08-09T18:10:32.365Z,21.80
2018-08-09T18:13:01.640Z,21.70
2018-08-09T18:15:31.554Z,21.60
2018-08-09T18:18:01.740Z,21.50
2018-08-09T18:20:33.539Z,21.50
2018-08-09T18:23:34.778Z,21.50
2018-08-09T18:26:04.059Z,21.50
2018-08-09T18:28:33.365Z,21.20
2018-08-09T18:31:02.908Z,21.20
2018-08-09T18:33:32.128Z,21.10
2018-08-09T18:36:01.379Z,21.00
2018-08-09T18:38:30.768Z,21.00
2018-08-09T18:41:00.019Z,20.90
2018-08-09T18:43:29.260Z,20.90
2018-08-09T18:45:59.365Z,20.80
2018-08-09T18:48:28.644Z,20.90
2018-08-09T18:50:57.926Z,20.90
2018-08-09T18:53:27.142Z,20.80
2018-08-09T18:55:56.367Z,20.80
2018-08-09T18:58:25.648Z,20.80
2018-08-09T19:00:54.853Z,20.80
2018-08-09T19:03:24.134Z,20.70
2018-08-09T19:05:53.340Z,20.70
2018-08-09T19:08:22.625Z,20.80
2018-08-09T19:10:51.874Z,20.70
2018-08-09T19:13:21.062Z,20.70
2018-08-09T19:15:50.281Z,20.70
2018-08-09T19:18:19.472Z,20.70
2018-08-09T19:20:48.678Z,20.70
2018-08-09T19:23:18.090Z,20.70
2018-08-09T19:25:47.293Z,20.60
2018-08-09T19:28:16.516Z,20.60
2018-08-09T19:30:45.827Z,20.50
2018-08-09T19:33:15.104Z,20.50
2018-08-09T19:35:44.338Z,20.40
2018-08-09T19:38:13.591Z,20.40
2018-08-09T19:40:42.852Z,20.40
2018-08-09T19:43:12.057Z,20.40
2018-08-09T19:45:41.321Z,20.40
2018-08-09T19:48:10.583Z,20.40
2018-08-09T19:50:39.776Z,20.40
2018-08-09T19:53:09.090Z,20.40
2018-08-09T19:55:38.291Z,20.40
2018-08-09T19:58:07.534Z,20.40
2018-08-09T20:00:36.836Z,20.40
2018-08-09T20:03:06.158Z,20.40
2018-08-09T20:05:35.417Z,20.40
2018-08-09T20:08:04.749Z,20.40
2018-08-09T20:10:35.058Z,20.40
2018-08-09T20:13:04.259Z,20.40
2018-08-09T20:15:33.554Z,20.30
2018-08-09T20:18:02.788Z,20.30
2018-08-09T20:20:32.015Z,20.30
2018-08-09T20:23:01.283Z,20.30
2018-08-09T20:25:30.511Z,20.20
2018-08-09T20:27:59.809Z,20.20
2018-08-09T20:30:29.016Z,20.20
2018-08-09T20:32:58.227Z,20.10
2018-08-09T20:35:27.458Z,20.10
2018-08-09T20:37:56.659Z,20.00
2018-08-09T20:40:25.920Z,20.00
2018-08-09T20:42:58.156Z,19.90
2018-08-09T20:45:27.383Z,19.90
2018-08-09T20:47:56.666Z,19.90
2018-08-09T20:50:27.437Z,19.90
2018-08-09T20:52:56.644Z,19.90
2018-08-09T20:55:25.965Z,19.90
2018-08-09T20:57:56.022Z,19.90
2018-08-09T21:00:30.780Z,19.90
2018-08-09T21:03:00.839Z,19.90
2018-08-09T21:05:37.903Z,19.90
2018-08-09T21:08:07.143Z,20.00
2018-08-09T21:13:05.389Z,20.10
2018-08-09T21:15:34.700Z,20.00
2018-08-09T21:18:03.798Z,20.10
2018-08-09T21:20:33.053Z,20.10
2018-08-09T21:23:02.261Z,20.10
2018-08-09T21:25:31.454Z,20.10
2018-08-09T21:28:00.650Z,20.10
2018-08-09T21:30:29.855Z,20.10
2018-08-09T21:32:59.074Z,20.10
2018-08-09T21:35:28.299Z,20.00
2018-08-09T21:37:57.520Z,20.00
2018-08-09T21:40:26.703Z,20.00
2018-08-09T21:42:55.902Z,19.90
2018-08-09T21:45:25.201Z,20.00
2018-08-09T21:47:54.387Z,19.90
2018-08-09T21:50:23.626Z,19.90
2018-08-09T21:52:52.915Z,19.90
2018-08-09T21:55:22.110Z,20.00
2018-08-09T21:57:51.347Z,20.00
2018-08-09T22:00:51.733Z,20.00
2018-08-09T22:03:23.185Z,20.00
2018-08-09T22:05:57.744Z,19.90
2018-08-09T22:08:32.130Z,19.90
2018-08-09T22:11:06.511Z,19.80
2018-08-09T22:13:40.915Z,19.80
2018-08-09T22:16:15.250Z,19.80
2018-08-09T22:18:49.571Z,19.80
2018-08-09T22:21:23.990Z,19.80
2018-08-09T22:23:53.170Z,19.70
2018-08-09T22:26:22.414Z,19.70
2018-08-09T22:28:51.703Z,19.70
2018-08-09T22:31:20.870Z,19.70
2018-08-09T22:33:50.211Z,19.60
2018-08-09T22:36:19.496Z,19.60
2018-08-09T22:38:48.698Z,19.60
2018-08-09T22:41:18.186Z,19.50
2018-08-09T22:43:47.797Z,19.40
2018-08-09T22:46:17.037Z,19.40
2018-08-09T22:48:46.835Z,19.40
2018-08-09T22:51:16.107Z,19.30
2018-08-09T22:53:45.292Z,19.30
2018-08-09T22:56:14.507Z,19.30
2018-08-09T22:58:43.732Z,19.30
2018-08-09T23:01:12.983Z,19.40
2018-08-09T23:03:42.700Z,19.40
2018-08-09T23:06:12.344Z,19.50
2018-08-09T23:08:42.028Z,19.50
2018-08-09T23:11:11.624Z,19.60
2018-08-09T23:19:39.968Z,19.90
2018-08-09T23:22:09.300Z,19.90
2018-08-09T23:24:38.704Z,19.90
2018-08-09T23:27:08.097Z,19.90
2018-08-09T23:29:37.404Z,19.80
2018-08-09T23:32:06.749Z,19.80
2018-08-09T23:34:36.021Z,19.70
2018-08-09T23:37:05.349Z,19.70
2018-08-09T23:39:34.599Z,19.60
2018-08-09T23:42:03.998Z,19.50
2018-08-09T23:47:02.309Z,19.20
2018-08-09T23:49:31.754Z,19.10
2018-08-09T23:52:01.155Z,19.00
2018-08-09T23:54:30.497Z,19.00
2018-08-09T23:56:59.806Z,18.80
2018-08-09T23:59:29.095Z,18.80
